Time;durP1;ratioP1;P1;durP2;ratioP2;P2;SDS_P1;SDS_P2;PMS_P1;PMS_P2;Temp;Humidity;BMP_temperature;BMP_pressure;BME280_temperature;BME280_humidity;BME280_pressure;Samples;Min_cycle;Max_cycle;Signal;HPM_P1;HPM_P2
2023/04/18 00:02:38;;;;;;;21.60;19.50;;;11.20;99.90;;;;;;10452319;28;20308;-80
2023/04/18 00:07:40;;;;;;;20.73;18.93;;;11.20;99.90;;;;;;10441772;28;20191;-80
2023/04/18 00:12:44;;;;;;;21.57;19.67;;;11.20;99.90;;;;;;10454943;28;20218;-82
2023/04/18 00:17:46;;;;;;;22.53;20.53;;;11.20;99.90;;;;;;10434552;28;20218;-79
2023/04/18 00:22:49;;;;;;;21.73;19.73;;;11.20;99.90;;;;;;10450245;28;20225;-79
2023/04/18 00:27:52;;;;;;;20.50;18.70;;;11.20;99.90;;;;;;10453114;28;20203;-78
2023/04/18 00:32:54;;;;;;;21.00;19.20;;;11.20;99.90;;;;;;10432004;28;20222;-79
2023/04/18 00:37:56;;;;;;;20.43;18.53;;;11.10;99.90;;;;;;10412123;28;20298;-79
2023/04/18 00:43:00;;;;;;;20.10;18.30;;;11.10;99.90;;;;;;10440678;28;20275;-78
2023/04/18 00:48:02;;;;;;;20.70;18.90;;;11.20;99.90;;;;;;10431637;28;20217;-80
2023/04/18 00:53:05;;;;;;;20.37;18.50;;;11.10;99.90;;;;;;10423569;28;20225;-79
2023/04/18 00:58:09;;;;;;;21.10;19.30;;;11.20;99.90;;;;;;10428652;28;20297;-79
2023/04/18 01:03:13;;;;;;;19.23;17.57;;;11.20;99.90;;;;;;10406185;28;20249;-80
2023/04/18 01:08:17;;;;;;;21.37;19.47;;;11.20;99.90;;;;;;10442921;28;20197;-80
2023/04/18 01:13:20;;;;;;;20.40;18.40;;;11.20;99.90;;;;;;10437089;28;20233;-79
2023/04/18 01:18:23;;;;;;;20.33;18.63;;;11.20;99.90;;;;;;10436343;28;20332;-80
2023/04/18 01:23:25;;;;;;;19.67;17.87;;;11.20;99.90;;;;;;10433767;28;20748;-80
2023/04/18 01:28:28;;;;;;;22.20;19.87;;;11.20;99.90;;;;;;10438829;28;20221;-83
2023/04/18 01:33:31;;;;;;;19.90;18.10;;;11.20;99.90;;;;;;10436762;28;20272;-81
2023/04/18 01:38:33;;;;;;;20.07;18.33;;;11.20;99.90;;;;;;10430458;28;20215;-81
2023/04/18 01:43:37;;;;;;;19.30;17.47;;;11.20;99.90;;;;;;10428467;28;20222;-78
2023/04/18 01:48:39;;;;;;;19.70;18.00;;;11.10;99.90;;;;;;10438625;28;20204;-82
2023/04/18 01:53:41;;;;;;;19.60;17.67;;;11.10;99.90;;;;;;10422207;28;20309;-82
2023/04/18 01:58:45;;;;;;;20.00;18.10;;;11.10;99.90;;;;;;10413837;28;20685;-80
2023/04/18 02:03:48;;;;;;;19.07;17.37;;;11.10;99.90;;;;;;10430612;28;20301;-79
2023/04/18 02:08:50;;;;;;;18.73;17.03;;;11.10;99.90;;;;;;10422472;28;20197;-80
2023/04/18 02:13:53;;;;;;;19.07;17.37;;;11.10;99.90;;;;;;10424075;28;20562;-81
2023/04/18 02:18:55;;;;;;;21.73;19.73;;;11.10;99.90;;;;;;10442957;28;20233;-83
2023/04/18 02:23:58;;;;;;;19.87;18.13;;;11.10;99.90;;;;;;10465607;28;20210;-83
2023/04/18 02:29:01;;;;;;;19.50;17.73;;;11.10;99.90;;;;;;10434742;28;20269;-83
2023/04/18 02:34:04;;;;;;;19.77;17.97;;;11.10;99.90;;;;;;10449321;28;20245;-81
2023/04/18 02:39:06;;;;;;;19.77;18.07;;;11.00;99.90;;;;;;10438211;28;20212;-81
2023/04/18 02:44:10;;;;;;;20.03;18.13;;;11.00;99.90;;;;;;10429999;28;20226;-82
2023/04/18 02:49:14;;;;;;;19.03;17.30;;;11.00;99.90;;;;;;10434240;28;20209;-83
2023/04/18 02:54:17;;;;;;;20.53;18.73;;;10.90;99.90;;;;;;10432847;28;20491;-80
2023/04/18 02:59:29;;;;;;;20.10;18.10;;;10.90;99.90;;;;;;10439521;28;20293;-81
2023/04/18 03:04:49;;;;;;;18.90;17.13;;;10.90;99.90;;;;;;10430078;28;20747;-81
2023/04/18 03:09:51;;;;;;;20.83;18.97;;;10.90;99.90;;;;;;10426890;28;20198;-82
2023/04/18 03:15:03;;;;;;;18.50;16.80;;;10.90;99.90;;;;;;10455967;23;20233;-80
2023/04/18 03:20:06;;;;;;;20.00;18.30;;;10.90;99.90;;;;;;10429119;28;20204;-78
2023/04/18 03:25:09;;;;;;;19.17;17.37;;;10.80;99.90;;;;;;10398806;28;20218;-79
2023/04/18 03:30:29;;;;;;;19.37;17.77;;;10.80;99.90;;;;;;10410136;28;20213;-78
2023/04/18 03:35:33;;;;;;;18.33;16.70;;;10.70;99.90;;;;;;10405862;28;20211;-79
2023/04/18 03:40:36;;;;;;;19.00;17.43;;;10.70;99.90;;;;;;10408477;28;20205;-79
2023/04/18 03:45:47;;;;;;;17.03;15.57;;;10.70;99.90;;;;;;10439688;28;20217;-79
2023/04/18 03:50:50;;;;;;;19.40;17.60;;;10.70;99.90;;;;;;10418880;28;20201;-80
2023/04/18 03:55:53;;;;;;;19.20;17.60;;;10.60;99.90;;;;;;10422923;28;20269;-80
2023/04/18 04:01:01;;;;;;;19.87;18.07;;;10.60;99.90;;;;;;10387711;28;20280;-79
2023/04/18 04:06:05;;;;;;;18.57;16.90;;;10.70;99.90;;;;;;10418768;28;20217;-78
2023/04/18 04:11:08;;;;;;;19.03;17.43;;;10.60;99.90;;;;;;10386843;28;20222;-78
2023/04/18 04:16:12;;;;;;;18.43;16.67;;;10.60;99.90;;;;;;10403982;28;20215;-79
2023/04/18 04:21:14;;;;;;;17.60;16.00;;;10.50;99.90;;;;;;10404487;28;20278;-79
2023/04/18 04:26:29;;;;;;;20.30;18.27;;;10.40;99.90;;;;;;10402937;28;20190;-79
2023/04/18 04:31:41;;;;;;;21.20;19.03;;;10.40;99.90;;;;;;10403192;28;20225;-80
2023/04/18 04:36:44;;;;;;;19.90;18.10;;;10.40;99.90;;;;;;10419419;28;20218;-80
2023/04/18 04:41:48;;;;;;;18.63;17.03;;;10.40;99.90;;;;;;10386899;28;20218;-80
2023/04/18 04:46:55;;;;;;;20.07;18.00;;;10.40;99.90;;;;;;10412356;28;20190;-79
2023/04/18 04:52:02;;;;;;;20.27;18.37;;;10.30;99.90;;;;;;10407668;28;20650;-79
2023/04/18 04:57:05;;;;;;;20.20;18.30;;;10.30;99.90;;;;;;10398217;28;20341;-79
2023/04/18 05:02:11;;;;;;;19.70;17.90;;;10.40;99.90;;;;;;10438524;28;20214;-79
2023/04/18 05:07:14;;;;;;;19.43;17.73;;;10.40;99.90;;;;;;10398964;28;20196;-80
2023/04/18 05:12:16;;;;;;;20.10;18.03;;;10.40;99.90;;;;;;10438526;28;20245;-80
2023/04/18 05:17:19;;;;;;;18.97;17.20;;;10.50;99.90;;;;;;10441097;28;20202;-79
2023/04/18 05:22:21;;;;;;;19.43;17.50;;;10.50;99.90;;;;;;10391567;28;20716;-79
2023/04/18 05:27:24;;;;;;;19.90;18.20;;;10.50;99.90;;;;;;10429132;28;20185;-79
2023/04/18 05:32:27;;;;;;;21.00;18.90;;;10.60;99.90;;;;;;10391453;28;20238;-77
2023/04/18 05:37:29;;;;;;;19.27;17.47;;;10.60;99.90;;;;;;10395080;28;20306;-79
2023/04/18 05:42:31;;;;;;;21.30;19.30;;;10.60;99.90;;;;;;10393442;28;20744;-79
2023/04/18 05:47:35;;;;;;;20.27;18.47;;;10.60;99.90;;;;;;10390653;28;20225;-79
2023/04/18 05:52:37;;;;;;;19.23;17.20;;;10.60;99.90;;;;;;10415805;28;20210;-79
2023/04/18 05:57:40;;;;;;;20.60;18.77;;;10.70;99.90;;;;;;10409641;28;20653;-80
2023/04/18 06:02:43;;;;;;;19.60;17.70;;;10.60;99.90;;;;;;10434793;28;20254;-80
2023/04/18 06:07:46;;;;;;;19.70;17.90;;;10.70;99.90;;;;;;10447915;28;20673;-78
2023/04/18 06:12:49;;;;;;;20.23;18.20;;;10.70;99.90;;;;;;10455803;28;20410;-79
2023/04/18 06:17:52;;;;;;;20.53;18.73;;;10.70;99.90;;;;;;10432189;28;20222;-79
2023/04/18 06:22:54;;;;;;;20.03;18.17;;;10.80;99.90;;;;;;10451259;28;20297;-79
2023/04/18 06:27:56;;;;;;;20.17;18.37;;;10.80;99.90;;;;;;10432487;28;20194;-79
2023/04/18 06:33:00;;;;;;;21.57;19.63;;;10.90;99.90;;;;;;10439843;28;20226;-79
2023/04/18 06:38:02;;;;;;;21.40;19.40;;;10.90;99.90;;;;;;10436587;28;20245;-79
2023/04/18 06:43:04;;;;;;;21.50;19.40;;;11.00;99.90;;;;;;10458804;28;20296;-79
2023/04/18 06:48:09;;;;;;;21.07;19.17;;;11.10;99.90;;;;;;10417156;28;20717;-79
2023/04/18 06:53:11;;;;;;;20.00;18.10;;;11.20;99.90;;;;;;10393542;28;20218;-79
2023/04/18 06:58:15;;;;;;;19.53;17.87;;;11.30;99.90;;;;;;10433134;28;20233;-79
2023/04/18 07:03:19;;;;;;;19.40;17.60;;;11.30;99.90;;;;;;10439593;28;20272;-80
2023/04/18 07:08:21;;;;;;;20.80;18.80;;;11.30;99.90;;;;;;10430348;28;20268;-79
2023/04/18 07:13:23;;;;;;;20.23;18.43;;;11.30;99.90;;;;;;10404344;28;20295;-79
2023/04/18 07:18:27;;;;;;;21.50;19.50;;;11.40;99.90;;;;;;10434151;28;20218;-79
2023/04/18 07:23:30;;;;;;;19.40;17.70;;;11.40;99.90;;;;;;10454008;28;20218;-79
2023/04/18 07:28:32;;;;;;;20.60;18.50;;;11.40;99.90;;;;;;10408121;28;20202;-80
2023/04/18 07:33:36;;;;;;;18.70;17.10;;;11.50;99.90;;;;;;10449147;28;20219;-80
2023/04/18 07:38:38;;;;;;;19.33;17.70;;;11.50;99.90;;;;;;10448344;28;20721;-80
2023/04/18 07:43:40;;;;;;;19.83;18.03;;;11.50;99.90;;;;;;10438313;28;20218;-80
2023/04/18 07:48:43;;;;;;;19.60;17.90;;;11.60;99.90;;;;;;10412669;28;20599;-80
2023/04/18 07:53:45;;;;;;;17.77;16.17;;;11.60;99.90;;;;;;10409998;28;20658;-80
2023/04/18 07:58:47;;;;;;;19.73;17.80;;;11.60;99.90;;;;;;10442637;28;20214;-80
2023/04/18 08:03:52;;;;;;;18.03;16.43;;;11.60;99.90;;;;;;10439725;28;20223;-80
2023/04/18 08:08:54;;;;;;;19.80;17.90;;;11.60;99.90;;;;;;10386414;28;20191;-79
2023/04/18 08:13:56;;;;;;;17.50;15.87;;;11.70;99.90;;;;;;10426152;28;20215;-80
2023/04/18 08:18:59;;;;;;;18.00;16.40;;;11.90;99.90;;;;;;10423792;28;20214;-80
2023/04/18 08:24:01;;;;;;;17.47;15.87;;;12.10;99.90;;;;;;10442891;28;20258;-80
2023/04/18 08:29:05;;;;;;;18.27;16.67;;;12.20;99.90;;;;;;10423498;28;20186;-80
2023/04/18 08:34:08;;;;;;;18.23;16.53;;;12.40;99.90;;;;;;10427884;28;20237;-80
2023/04/18 08:39:10;;;;;;;17.13;15.63;;;12.50;99.90;;;;;;10417662;28;20223;-80
2023/04/18 08:44:12;;;;;;;17.20;15.60;;;12.60;99.90;;;;;;10448090;28;20225;-80
2023/04/18 08:49:16;;;;;;;18.87;16.93;;;12.70;99.90;;;;;;10416129;28;20183;-80
2023/04/18 08:54:22;;;;;;;17.87;16.17;;;12.80;99.90;;;;;;10420814;28;20220;-80
2023/04/18 08:59:24;;;;;;;17.80;16.20;;;13.00;99.90;;;;;;10444241;28;20554;-80
2023/04/18 09:04:37;;;;;;;18.10;16.43;;;13.20;99.90;;;;;;10444251;28;20223;-80
2023/04/18 09:09:41;;;;;;;16.37;14.77;;;13.30;99.90;;;;;;10409689;28;20221;-80
2023/04/18 09:14:45;;;;;;;16.23;14.83;;;13.40;99.90;;;;;;10445783;22;20242;-84
2023/04/18 09:19:49;;;;;;;17.57;16.10;;;13.30;99.90;;;;;;10401506;28;20297;-82
2023/04/18 09:24:54;;;;;;;18.63;16.83;;;13.20;99.90;;;;;;10393836;28;20207;-82
2023/04/18 09:29:56;;;;;;;19.17;17.37;;;13.00;99.90;;;;;;10379799;28;20183;-82
2023/04/18 09:35:03;;;;;;;16.50;15.00;;;12.90;99.90;;;;;;10397108;28;20702;-82
2023/04/18 09:40:16;;;;;;;20.83;18.73;;;12.90;99.90;;;;;;10399924;28;20668;-82
2023/04/18 09:45:19;;;;;;;19.30;17.53;;;12.90;99.90;;;;;;10375951;28;20244;-82
2023/04/18 09:50:22;;;;;;;18.30;16.60;;;12.90;99.90;;;;;;10387507;28;20222;-82
2023/04/18 09:55:24;;;;;;;19.23;17.30;;;12.90;99.90;;;;;;10392359;28;20714;-82
2023/04/18 10:00:29;;;;;;;20.80;18.80;;;13.00;99.90;;;;;;10399201;28;20306;-82
2023/04/18 10:05:34;;;;;;;17.33;15.83;;;13.20;99.90;;;;;;10364694;28;20222;-81
2023/04/18 10:10:36;;;;;;;18.37;16.47;;;13.50;99.90;;;;;;10382582;28;20227;-82
2023/04/18 10:15:42;;;;;;;17.00;15.50;;;13.90;99.90;;;;;;10387319;28;20325;-82
2023/04/18 10:20:48;;;;;;;16.10;14.60;;;14.20;99.90;;;;;;10380343;28;20291;-83
2023/04/18 10:25:51;;;;;;;15.70;14.20;;;14.20;99.90;;;;;;10389544;28;20219;-83
2023/04/18 10:31:02;;;;;;;15.67;14.27;;;14.20;99.90;;;;;;10398567;28;20282;-83
2023/04/18 10:36:19;;;;;;;14.50;13.20;;;14.30;99.90;;;;;;10383298;28;20215;-84
2023/04/18 10:41:23;;;;;;;14.07;12.80;;;14.50;99.90;;;;;;10394665;28;20527;-84
2023/04/18 10:46:25;;;;;;;14.13;12.80;;;14.60;99.90;;;;;;10392058;28;20214;-84
2023/04/18 10:51:29;;;;;;;14.80;13.47;;;14.70;99.90;;;;;;10378605;28;20250;-84
2023/04/18 10:56:31;;;;;;;13.63;12.43;;;14.90;99.90;;;;;;10381742;28;20211;-83
2023/04/18 11:01:37;;;;;;;15.30;14.00;;;14.80;99.90;;;;;;10380996;28;20257;-82
2023/04/18 11:06:51;;;;;;;11.93;10.97;;;14.80;99.90;;;;;;10394414;28;20210;-82
2023/04/18 11:12:05;;;;;;;11.43;10.43;;;14.80;99.90;;;;;;10385601;28;20239;-82
2023/04/18 11:17:21;;;;;;;12.70;11.60;;;14.90;99.90;;;;;;10408597;28;20229;-82
2023/04/18 11:22:24;;;;;;;11.73;10.67;;;15.00;99.90;;;;;;10375065;28;20226;-82
2023/04/18 11:27:26;;;;;;;11.23;10.30;;;14.90;99.90;;;;;;10392274;28;20191;-83
2023/04/18 11:32:28;;;;;;;11.73;10.73;;;14.90;99.90;;;;;;10359676;28;20216;-82
2023/04/18 11:37:32;;;;;;;10.70;9.80;;;14.90;99.90;;;;;;10385536;28;20250;-83
2023/04/18 11:42:35;;;;;;;10.23;9.43;;;14.90;99.90;;;;;;10374955;28;20306;-85
2023/04/18 11:47:40;;;;;;;10.10;9.30;;;15.00;99.90;;;;;;10386979;28;20222;-85
2023/04/18 11:52:49;;;;;;;10.47;9.40;;;14.90;99.90;;;;;;10404188;28;20214;-84
2023/04/18 11:57:53;;;;;;;10.90;9.80;;;14.80;99.90;;;;;;10375597;28;20214;-83
2023/04/18 12:02:55;;;;;;;10.23;9.43;;;14.60;99.90;;;;;;10386318;28;20222;-84
2023/04/18 12:08:07;;;;;;;10.33;9.40;;;14.60;99.90;;;;;;10387856;28;20192;-83
2023/04/18 12:13:09;;;;;;;9.40;8.70;;;14.60;99.90;;;;;;10366238;28;20218;-82
2023/04/18 12:23:35;;;;;;;10.97;9.97;;;14.60;99.90;;;;;;10364348;28;20667;-83
2023/04/18 12:28:37;;;;;;;10.97;9.97;;;14.60;99.90;;;;;;10368060;28;20191;-84
2023/04/18 12:33:40;;;;;;;10.20;9.20;;;14.60;99.90;;;;;;10382893;28;20219;-82
2023/04/18 12:38:44;;;;;;;10.33;9.37;;;14.80;99.90;;;;;;10386199;28;20285;-85
2023/04/18 12:43:46;;;;;;;10.47;9.47;;;14.90;99.90;;;;;;10368146;28;20238;-84
2023/04/18 12:48:48;;;;;;;8.63;7.93;;;15.00;99.90;;;;;;10391585;28;20187;-82
2023/04/18 12:53:51;;;;;;;11.13;10.03;;;15.10;99.90;;;;;;10385856;28;20219;-82
2023/04/18 12:58:53;;;;;;;8.43;7.73;;;15.30;99.90;;;;;;10364424;28;20238;-83
2023/04/18 13:03:55;;;;;;;8.67;7.97;;;15.40;99.90;;;;;;10365757;28;20238;-82
2023/04/18 13:08:59;;;;;;;8.73;8.03;;;15.60;99.90;;;;;;10411552;28;20646;-82
2023/04/18 13:14:01;;;;;;;7.90;7.30;;;15.70;99.90;;;;;;10354638;28;20511;-82
2023/04/18 13:19:03;;;;;;;7.07;6.57;;;15.80;99.90;;;;;;10362863;28;20215;-82
2023/04/18 13:24:07;;;;;;;8.30;7.60;;;15.90;99.90;;;;;;10408416;28;20211;-82
2023/04/18 13:29:09;;;;;;;7.30;6.80;;;15.90;99.90;;;;;;10409705;28;20219;-82
2023/04/18 13:34:11;;;;;;;6.30;5.87;;;15.90;99.80;;;;;;10417353;28;20207;-82
2023/04/18 13:39:15;;;;;;;7.07;6.47;;;15.80;99.50;;;;;;10416671;28;20672;-82
2023/04/18 13:44:17;;;;;;;6.47;5.87;;;15.80;99.90;;;;;;10387428;28;20223;-82
2023/04/18 13:49:19;;;;;;;7.83;7.23;;;15.80;99.10;;;;;;10384558;28;20195;-82
2023/04/18 13:54:22;;;;;;;6.47;5.97;;;15.80;99.90;;;;;;10403763;28;20214;-82
2023/04/18 13:59:24;;;;;;;7.30;6.70;;;15.80;99.90;;;;;;10413799;28;20238;-82
2023/04/18 14:04:26;;;;;;;6.50;6.00;;;15.80;99.90;;;;;;10405715;28;20572;-82
2023/04/18 14:09:30;;;;;;;6.27;5.87;;;15.70;99.90;;;;;;10400634;28;20198;-80
2023/04/18 14:14:32;;;;;;;6.20;5.80;;;15.50;99.80;;;;;;10411542;28;20722;-81
2023/04/18 14:19:34;;;;;;;6.37;5.87;;;15.40;99.90;;;;;;10386710;28;20495;-80
2023/04/18 14:24:38;;;;;;;6.57;6.07;;;15.30;99.90;;;;;;10395485;28;20227;-84
2023/04/18 14:29:40;;;;;;;7.27;6.77;;;15.30;99.90;;;;;;10404379;28;20187;-83
2023/04/18 14:34:42;;;;;;;7.70;7.10;;;15.30;99.90;;;;;;10424863;28;20214;-83
2023/04/18 14:39:46;;;;;;;7.20;6.70;;;15.40;99.90;;;;;;10398506;28;20219;-82
2023/04/18 14:44:48;;;;;;;6.93;6.43;;;15.40;98.80;;;;;;10404744;28;20492;-82
2023/04/18 14:49:50;;;;;;;7.70;7.10;;;15.40;99.90;;;;;;10384435;28;20187;-82
2023/04/18 14:54:54;;;;;;;7.83;6.90;;;15.40;99.90;;;;;;10393593;28;20224;-83
2023/04/18 14:59:56;;;;;;;7.43;6.87;;;15.40;99.90;;;;;;10421407;28;20210;-82
2023/04/18 15:04:59;;;;;;;7.40;6.80;;;15.40;98.60;;;;;;10421407;28;20649;-82
2023/04/18 15:10:02;;;;;;;6.50;6.00;;;15.40;99.10;;;;;;10415572;28;20578;-82
2023/04/18 15:15:05;;;;;;;7.90;6.57;;;15.40;99.10;;;;;;10421518;28;20226;-82
2023/04/18 15:20:08;;;;;;;8.57;7.80;;;15.30;99.90;;;;;;10395904;28;20717;-82
2023/04/18 15:25:15;;;;;;;6.57;6.07;;;15.40;99.90;;;;;;10393488;28;20215;-82
2023/04/18 15:30:17;;;;;;;6.00;5.60;;;15.30;99.90;;;;;;10383171;28;20217;-82
2023/04/18 15:35:19;;;;;;;7.30;6.80;;;15.40;99.90;;;;;;10409041;28;20213;-82
2023/04/18 15:40:22;;;;;;;9.27;8.37;;;15.30;99.90;;;;;;10401825;28;20245;-83
2023/04/18 15:45:24;;;;;;;8.30;7.60;;;15.30;99.90;;;;;;10416312;28;20219;-82
2023/04/18 15:50:26;;;;;;;6.70;6.20;;;15.20;99.90;;;;;;10402199;28;20202;-82
2023/04/18 15:55:30;;;;;;;5.80;5.40;;;15.20;99.90;;;;;;10402172;28;20219;-82
2023/04/18 16:00:32;;;;;;;5.70;5.30;;;15.00;99.90;;;;;;10386427;28;20287;-82
2023/04/18 16:05:34;;;;;;;6.47;5.97;;;14.90;99.90;;;;;;10395516;28;20273;-82
2023/04/18 16:10:38;;;;;;;6.40;5.90;;;14.70;99.90;;;;;;10384787;28;20226;-82
2023/04/18 16:15:41;;;;;;;6.63;6.20;;;14.70;99.90;;;;;;10384070;28;20250;-82
2023/04/18 16:20:43;;;;;;;8.33;7.73;;;14.60;99.90;;;;;;10392149;28;20290;-82
2023/04/18 16:25:46;;;;;;;5.80;5.40;;;14.60;99.90;;;;;;10404918;28;20656;-82
2023/04/18 16:30:49;;;;;;;8.67;7.97;;;14.50;99.90;;;;;;10387008;28;20651;-82
2023/04/18 16:35:51;;;;;;;8.30;7.70;;;14.50;99.90;;;;;;10386823;28;20231;-82
2023/04/18 16:40:56;;;;;;;8.60;8.00;;;14.40;99.90;;;;;;10394193;28;20230;-82
2023/04/18 16:45:59;;;;;;;9.80;8.80;;;14.40;99.90;;;;;;10387544;28;20218;-81
2023/04/18 16:51:01;;;;;;;9.10;8.40;;;14.30;99.90;;;;;;10377526;28;20199;-81
2023/04/18 16:56:06;;;;;;;9.23;8.43;;;14.30;99.90;;;;;;10368788;28;20286;-82
2023/04/18 17:01:08;;;;;;;10.07;9.37;;;14.30;99.90;;;;;;10377074;28;20261;-80
2023/04/18 17:06:15;;;;;;;9.83;9.13;;;14.20;99.90;;;;;;10359471;28;20230;-80
2023/04/18 17:11:27;;;;;;;9.17;8.47;;;14.20;99.90;;;;;;10371991;28;20213;-87
2023/04/18 17:16:29;;;;;;;11.30;10.30;;;14.10;99.90;;;;;;10365005;28;20666;-83
2023/04/18 17:21:31;;;;;;;10.30;9.50;;;14.10;99.90;;;;;;10380061;28;20223;-83
2023/04/18 17:26:36;;;;;;;9.83;9.03;;;14.10;99.90;;;;;;10378898;28;20210;-83
2023/04/18 17:31:38;;;;;;;12.17;11.17;;;14.00;99.90;;;;;;10357048;28;20199;-81
2023/04/18 17:36:41;;;;;;;12.80;11.80;;;14.00;99.90;;;;;;10358835;28;20201;-81
2023/04/18 17:41:45;;;;;;;12.67;11.47;;;13.90;99.90;;;;;;10384147;28;20542;-81
2023/04/18 17:46:47;;;;;;;14.87;13.23;;;13.90;99.90;;;;;;10358008;28;20203;-81
2023/04/18 17:51:49;;;;;;;12.20;11.10;;;13.80;99.90;;;;;;10368253;28;20243;-82
2023/04/18 17:56:53;;;;;;;10.63;9.73;;;13.80;99.90;;;;;;10359022;28;20226;-81
2023/04/18 18:01:55;;;;;;;10.80;10.00;;;13.80;99.90;;;;;;10385312;28;20227;-81
2023/04/18 18:06:57;;;;;;;11.00;10.10;;;13.80;99.90;;;;;;10367598;28;20222;-81
2023/04/18 18:12:01;;;;;;;10.73;9.83;;;13.70;99.90;;;;;;10387041;28;20265;-81
2023/04/18 18:17:04;;;;;;;11.07;10.27;;;13.70;99.90;;;;;;10394698;28;20214;-81
2023/04/18 18:22:07;;;;;;;10.67;9.87;;;13.70;99.90;;;;;;10388456;28;20278;-80
2023/04/18 18:27:10;;;;;;;10.23;9.43;;;13.70;99.90;;;;;;10364083;28;20203;-80
2023/04/18 18:32:12;;;;;;;10.83;10.03;;;13.60;99.90;;;;;;10372286;28;20229;-83
2023/04/18 18:37:15;;;;;;;12.17;11.07;;;13.60;99.90;;;;;;10380260;28;20651;-82
2023/04/18 18:42:18;;;;;;;11.60;10.60;;;13.60;99.90;;;;;;10382667;28;20251;-83
2023/04/18 18:47:20;;;;;;;11.80;10.90;;;13.60;99.90;;;;;;10375659;28;20309;-82
2023/04/18 18:52:26;;;;;;;10.93;9.93;;;13.60;99.90;;;;;;10394359;28;20242;-82
2023/04/18 18:57:30;;;;;;;12.77;11.73;;;13.60;99.90;;;;;;10375202;28;20202;-83
2023/04/18 19:02:32;;;;;;;11.00;10.00;;;13.50;99.90;;;;;;10359186;28;20226;-82
2023/04/18 19:07:34;;;;;;;12.37;11.37;;;13.50;99.90;;;;;;10365538;28;20584;-82
2023/04/18 19:12:38;;;;;;;13.60;12.40;;;13.50;99.90;;;;;;10372160;28;20276;-81
2023/04/18 19:17:40;;;;;;;12.00;11.10;;;13.50;99.90;;;;;;10387220;28;20222;-83
2023/04/18 19:22:42;;;;;;;12.50;11.40;;;13.40;99.90;;;;;;10385236;28;20251;-82
2023/04/18 19:27:46;;;;;;;11.53;10.63;;;13.40;99.90;;;;;;10400263;28;20211;-81
2023/04/18 19:32:48;;;;;;;13.77;12.57;;;13.40;99.90;;;;;;10383896;28;20243;-81
2023/04/18 19:37:50;;;;;;;13.20;12.10;;;13.40;99.90;;;;;;10366113;28;20238;-80
2023/04/18 19:42:53;;;;;;;12.77;11.70;;;13.30;99.90;;;;;;10381518;28;20285;-80
2023/04/18 19:47:56;;;;;;;11.20;10.30;;;13.30;99.90;;;;;;10365086;28;20206;-82
2023/04/18 19:52:58;;;;;;;11.90;10.83;;;13.30;99.90;;;;;;10407915;28;20688;-80
2023/04/18 19:58:01;;;;;;;12.53;11.53;;;13.30;99.90;;;;;;10377967;28;20274;-81
2023/04/18 20:03:03;;;;;;;11.47;10.57;;;13.20;99.90;;;;;;10381529;28;20695;-81
2023/04/18 20:08:06;;;;;;;12.20;11.30;;;13.20;99.90;;;;;;10364704;28;20203;-81
2023/04/18 20:13:09;;;;;;;12.20;11.20;;;13.20;99.90;;;;;;10377840;28;20226;-80
2023/04/18 20:18:11;;;;;;;12.47;11.47;;;13.10;99.90;;;;;;10362087;28;20679;-80
2023/04/18 20:23:13;;;;;;;12.30;11.10;;;13.20;99.90;;;;;;10364906;28;20538;-79
2023/04/18 20:28:17;;;;;;;12.30;11.30;;;13.20;99.90;;;;;;10368943;28;20239;-80
2023/04/18 20:33:19;;;;;;;12.07;11.10;;;13.10;99.90;;;;;;10403965;28;20226;-79
2023/04/18 20:38:23;;;;;;;12.20;11.23;;;13.10;99.90;;;;;;10364840;28;20239;-81
2023/04/18 20:43:27;;;;;;;13.27;12.00;;;13.10;99.90;;;;;;10361010;28;20218;-80
2023/04/18 20:48:29;;;;;;;12.73;11.67;;;13.10;99.90;;;;;;10365008;28;20193;-81
2023/04/18 20:53:31;;;;;;;12.47;11.47;;;13.10;99.90;;;;;;10381500;28;20230;-80
2023/04/18 20:58:34;;;;;;;12.43;11.33;;;13.10;99.90;;;;;;10375260;28;20213;-80
2023/04/18 21:03:42;;;;;;;12.00;11.10;;;13.10;99.90;;;;;;10356105;28;20226;-80
2023/04/18 21:08:44;;;;;;;12.77;11.67;;;13.00;99.90;;;;;;10385946;28;20264;-80
2023/04/18 21:13:48;;;;;;;13.10;11.97;;;13.00;99.90;;;;;;10399402;23;20249;-80
2023/04/18 21:18:50;;;;;;;13.10;12.00;;;13.00;99.90;;;;;;10419020;28;20218;-80
2023/04/18 21:23:52;;;;;;;12.80;11.60;;;13.00;99.90;;;;;;10401770;28;20220;-81
2023/04/18 21:28:57;;;;;;;13.43;12.23;;;13.00;99.90;;;;;;10401157;28;20714;-81
2023/04/18 21:34:01;;;;;;;12.50;11.40;;;13.00;99.90;;;;;;10383790;28;20226;-80
2023/04/18 21:39:03;;;;;;;11.80;10.80;;;12.90;99.90;;;;;;10379418;28;20581;-81
2023/04/18 21:44:07;;;;;;;11.27;10.37;;;12.90;99.90;;;;;;10365214;28;20219;-80
2023/04/18 21:49:09;;;;;;;11.90;11.00;;;13.00;99.90;;;;;;10399666;28;20275;-80
2023/04/18 21:54:11;;;;;;;13.33;12.03;;;12.90;99.90;;;;;;10384458;28;20219;-80
2023/04/18 21:59:15;;;;;;;12.10;11.03;;;12.90;99.90;;;;;;10406860;28;20213;-81
2023/04/18 22:04:19;;;;;;;11.17;10.27;;;12.90;99.90;;;;;;10416765;28;20281;-81
2023/04/18 22:09:22;;;;;;;13.13;11.93;;;12.90;99.90;;;;;;10415885;28;20240;-81
2023/04/18 22:14:27;;;;;;;12.40;11.30;;;12.90;99.90;;;;;;10432989;28;20584;-81
2023/04/18 22:19:30;;;;;;;11.97;10.87;;;12.90;99.90;;;;;;10433794;28;20749;-80
2023/04/18 22:24:32;;;;;;;12.80;11.67;;;12.90;99.90;;;;;;10437542;28;20206;-81
2023/04/18 22:29:35;;;;;;;12.10;11.10;;;12.90;99.90;;;;;;10427911;28;20233;-81
2023/04/18 22:34:40;;;;;;;13.53;12.13;;;12.80;99.90;;;;;;10389188;28;20291;-81
2023/04/18 22:39:42;;;;;;;12.93;11.70;;;12.80;99.90;;;;;;10437972;28;20309;-80
2023/04/18 22:44:46;;;;;;;13.10;11.73;;;12.80;99.90;;;;;;10446546;28;20221;-82
2023/04/18 22:49:48;;;;;;;13.00;11.80;;;12.70;99.90;;;;;;10451001;28;20266;-80
2023/04/18 22:54:50;;;;;;;17.33;12.90;;;12.70;99.90;;;;;;10420044;28;20236;-81
2023/04/18 22:59:53;;;;;;;11.93;10.93;;;12.70;99.90;;;;;;10409163;28;20204;-81
2023/04/18 23:04:57;;;;;;;12.73;11.73;;;12.70;99.90;;;;;;10393703;28;20245;-81
2023/04/18 23:09:59;;;;;;;11.93;10.93;;;12.70;99.90;;;;;;10389292;28;20201;-81
2023/04/18 23:15:03;;;;;;;13.40;12.10;;;12.70;99.90;;;;;;10421725;28;20219;-80
2023/04/18 23:20:06;;;;;;;12.57;11.50;;;12.70;99.90;;;;;;10402512;28;20225;-81
2023/04/18 23:25:09;;;;;;;13.23;12.13;;;12.70;99.90;;;;;;10418824;28;20219;-81
2023/04/18 23:30:13;;;;;;;12.00;10.87;;;12.70;99.90;;;;;;10421922;28;20269;-81
2023/04/18 23:35:15;;;;;;;14.20;12.87;;;12.70;99.90;;;;;;10387181;28;20218;-81
2023/04/18 23:40:17;;;;;;;13.97;12.77;;;12.70;99.90;;;;;;10422585;28;20301;-80
2023/04/18 23:45:23;;;;;;;13.97;12.70;;;12.70;99.90;;;;;;10399303;28;20739;-80
2023/04/18 23:50:25;;;;;;;13.83;12.63;;;12.70;99.90;;;;;;10399046;28;20249;-81
2023/04/18 23:55:27;;;;;;;14.50;13.10;;;12.70;99.90;;;;;;10386229;28;20223;-81
